Airfield :
LOGIN :

Register | Disclaimer

   EN    FR    IT 

 










Legend :    VFR   Marginal VFR   IFR   Intensive IFR   Very Intensive IFR
Visi :
Ceiling :
>= 8 km
>= 3000ft
5 to 8 km
1000 to 3000 ft
1500m to 5 km
500 to 1000 ft
800 to 1500m
200 to 500 ft
< 800m
< 200 ft
Symbols :   Thunderstorms  Fog  Heavy snow  Heavy precipitations  Wind > 20 kt
SIGMETs :     Misc.  Thunderstorms  Icing  Turbulence  Mountain Waves  Volcanic Ashes







- Airport Elevation : 141 ft
- IATA code : SKS


EKSP - Srydstrup Vojens

CURRENT METAR :
  • 220636Z 00000KT 6000 NSC 06/05 Q1017 RMK BKN200

EXPIRED METARs :
  • 220620Z 00000KT 4000 BR NSC 05/04 Q1018
  • 220600Z 00000KT 2500 BR NSC 03/03 Q1018 RMK BKN180
  • 220550Z 00000KT 1200 R10/1100U R28/1700U BR NSC 03/02 Q1018
  • 220520Z 00000KT 0250 R10/0400N R28/0750N FG VV001 01/01 Q1018
  • 220450Z 00000KT 0150 R10/M0300N R28/M0300N FG VV001 01/01 Q1017
  • 220420Z 19001KT 0100 R10/M0300N R28/M0300N FG VV001 00/00 Q1018
  • 220350Z 00000KT 0100 R10/M0300N R28/M0300N FG VV001 01/00 Q1018

TAF TAF EKSP
Valid from the 22 at 06:00 until the 23 at 06:00 UTC


220522Z 2206/2306 VRB03KT 0100 FG VV001
BECMG 2206/2208 9999 NSW FEW030 BKN180
BECMG 2208/2211 13012KT
TEMPO 2222/2306 3000 SHRA BR BKN006 SCT040CB
PROB40
TEMPO 2222/2306 TSRA
No reported NOTAMs for that airfield.



MET'MAP, your aeronautical weather chart ! - Copyright ORBIFLY December 2007 - Disclaimer

ORBIFLY MET'MAP TEAM :

Programming & Development : Alexandra Zaïnal
Concept & Development : Baudouin d'Aumeries
Co-Development & Prog : Marc-Olivier Méhu
Technical & hardware support : Manuel Goepfert

Contact : metmap@orbifly.com




SOURCES & CREDITS :

   NOAA